sensor_id;sensor_type;location;lat;lon;timestamp;P1;durP1;ratioP1;P2;durP2;ratioP2
3627;SDS011;1830;49.000;12.074;2023-05-10T00:00:09;5.90;;;5.40;;
3627;SDS011;1830;49.000;12.074;2023-05-10T00:02:38;6.23;;;5.60;;
3627;SDS011;1830;49.000;12.074;2023-05-10T00:05:05;5.77;;;5.20;;
3627;SDS011;1830;49.000;12.074;2023-05-10T00:07:33;5.30;;;4.80;;
3627;SDS011;1830;49.000;12.074;2023-05-10T00:10:00;9.10;;;5.50;;
3627;SDS011;1830;49.000;12.074;2023-05-10T00:12:26;6.17;;;5.20;;
3627;SDS011;1830;49.000;12.074;2023-05-10T00:14:53;5.93;;;5.37;;
3627;SDS011;1830;49.000;12.074;2023-05-10T00:17:20;6.83;;;5.73;;
3627;SDS011;1830;49.000;12.074;2023-05-10T00:19:48;9.93;;;5.77;;
3627;SDS011;1830;49.000;12.074;2023-05-10T00:22:15;5.63;;;5.03;;
3627;SDS011;1830;49.000;12.074;2023-05-10T00:24:42;6.07;;;5.47;;
3627;SDS011;1830;49.000;12.074;2023-05-10T00:27:08;6.87;;;5.40;;
3627;SDS011;1830;49.000;12.074;2023-05-10T00:29:35;9.23;;;6.03;;
3627;SDS011;1830;49.000;12.074;2023-05-10T00:32:02;6.20;;;5.60;;
3627;SDS011;1830;49.000;12.074;2023-05-10T00:34:29;8.23;;;5.23;;
3627;SDS011;1830;49.000;12.074;2023-05-10T00:36:57;6.80;;;6.10;;
3627;SDS011;1830;49.000;12.074;2023-05-10T00:39:24;5.73;;;5.23;;
3627;SDS011;1830;49.000;12.074;2023-05-10T00:41:51;8.57;;;5.67;;
3627;SDS011;1830;49.000;12.074;2023-05-10T00:44:18;6.70;;;5.63;;
3627;SDS011;1830;49.000;12.074;2023-05-10T00:46:45;6.20;;;5.60;;
3627;SDS011;1830;49.000;12.074;2023-05-10T00:49:13;10.10;;;5.70;;
3627;SDS011;1830;49.000;12.074;2023-05-10T00:51:40;6.37;;;5.73;;
3627;SDS011;1830;49.000;12.074;2023-05-10T00:54:09;7.30;;;5.50;;
3627;SDS011;1830;49.000;12.074;2023-05-10T00:56:37;7.10;;;5.27;;
3627;SDS011;1830;49.000;12.074;2023-05-10T00:59:04;6.03;;;5.53;;
3627;SDS011;1830;49.000;12.074;2023-05-10T01:01:30;6.37;;;5.77;;
3627;SDS011;1830;49.000;12.074;2023-05-10T01:03:58;5.70;;;5.20;;
3627;SDS011;1830;49.000;12.074;2023-05-10T01:06:25;6.30;;;5.63;;
3627;SDS011;1830;49.000;12.074;2023-05-10T01:08:52;9.30;;;5.87;;
3627;SDS011;1830;49.000;12.074;2023-05-10T01:11:20;5.80;;;5.30;;
3627;SDS011;1830;49.000;12.074;2023-05-10T01:13:50;9.03;;;5.70;;
3627;SDS011;1830;49.000;12.074;2023-05-10T01:16:21;9.07;;;6.77;;
3627;SDS011;1830;49.000;12.074;2023-05-10T01:18:48;6.93;;;6.00;;
3627;SDS011;1830;49.000;12.074;2023-05-10T01:21:19;6.00;;;5.50;;
3627;SDS011;1830;49.000;12.074;2023-05-10T01:23:59;6.67;;;5.93;;
3627;SDS011;1830;49.000;12.074;2023-05-10T01:26:53;8.53;;;6.70;;
3627;SDS011;1830;49.000;12.074;2023-05-10T01:29:56;12.13;;;7.27;;
3627;SDS011;1830;49.000;12.074;2023-05-10T01:32:37;7.00;;;6.40;;
3627;SDS011;1830;49.000;12.074;2023-05-10T01:35:10;8.13;;;6.20;;
3627;SDS011;1830;49.000;12.074;2023-05-10T01:37:44;8.83;;;6.10;;
3627;SDS011;1830;49.000;12.074;2023-05-10T01:40:17;12.90;;;6.50;;
3627;SDS011;1830;49.000;12.074;2023-05-10T01:42:53;8.23;;;5.87;;
3627;SDS011;1830;49.000;12.074;2023-05-10T01:45:27;19.00;;;6.77;;
3627;SDS011;1830;49.000;12.074;2023-05-10T01:48:05;10.50;;;6.63;;
3627;SDS011;1830;49.000;12.074;2023-05-10T01:50:34;12.20;;;7.13;;
3627;SDS011;1830;49.000;12.074;2023-05-10T01:53:02;10.73;;;5.87;;
3627;SDS011;1830;49.000;12.074;2023-05-10T01:55:35;7.47;;;6.83;;
3627;SDS011;1830;49.000;12.074;2023-05-10T01:58:06;6.63;;;6.03;;
3627;SDS011;1830;49.000;12.074;2023-05-10T02:00:35;7.17;;;6.47;;
3627;SDS011;1830;49.000;12.074;2023-05-10T02:03:07;7.83;;;7.03;;
3627;SDS011;1830;49.000;12.074;2023-05-10T02:05:36;9.93;;;6.90;;
3627;SDS011;1830;49.000;12.074;2023-05-10T02:08:05;7.97;;;6.97;;
3627;SDS011;1830;49.000;12.074;2023-05-10T02:10:33;8.93;;;6.77;;
3627;SDS011;1830;49.000;12.074;2023-05-10T02:13:01;7.20;;;6.60;;
3627;SDS011;1830;49.000;12.074;2023-05-10T02:15:29;13.80;;;8.20;;
3627;SDS011;1830;49.000;12.074;2023-05-10T02:17:57;7.70;;;7.00;;
3627;SDS011;1830;49.000;12.074;2023-05-10T02:20:27;10.70;;;7.10;;
3627;SDS011;1830;49.000;12.074;2023-05-10T02:22:55;9.03;;;7.27;;
3627;SDS011;1830;49.000;12.074;2023-05-10T02:25:23;7.07;;;6.37;;
3627;SDS011;1830;49.000;12.074;2023-05-10T02:27:51;7.93;;;7.13;;
3627;SDS011;1830;49.000;12.074;2023-05-10T02:30:20;9.77;;;6.73;;
3627;SDS011;1830;49.000;12.074;2023-05-10T02:32:47;10.13;;;7.67;;
3627;SDS011;1830;49.000;12.074;2023-05-10T02:35:15;8.20;;;7.40;;
3627;SDS011;1830;49.000;12.074;2023-05-10T02:37:44;8.50;;;7.60;;
3627;SDS011;1830;49.000;12.074;2023-05-10T02:40:12;8.23;;;7.33;;
3627;SDS011;1830;49.000;12.074;2023-05-10T02:42:41;7.90;;;7.10;;
3627;SDS011;1830;49.000;12.074;2023-05-10T02:45:11;8.30;;;7.33;;
3627;SDS011;1830;49.000;12.074;2023-05-10T02:47:41;9.27;;;8.20;;
3627;SDS011;1830;49.000;12.074;2023-05-10T02:50:09;10.43;;;8.07;;
3627;SDS011;1830;49.000;12.074;2023-05-10T02:52:38;11.80;;;8.10;;
3627;SDS011;1830;49.000;12.074;2023-05-10T02:55:11;10.33;;;7.30;;
3627;SDS011;1830;49.000;12.074;2023-05-10T02:57:40;8.87;;;7.97;;
3627;SDS011;1830;49.000;12.074;2023-05-10T03:00:10;10.40;;;8.20;;
3627;SDS011;1830;49.000;12.074;2023-05-10T03:02:37;13.07;;;7.70;;
3627;SDS011;1830;49.000;12.074;2023-05-10T03:05:04;10.03;;;8.03;;
3627;SDS011;1830;49.000;12.074;2023-05-10T03:07:32;8.83;;;8.03;;
3627;SDS011;1830;49.000;12.074;2023-05-10T03:09:59;14.63;;;9.10;;
3627;SDS011;1830;49.000;12.074;2023-05-10T03:12:30;13.10;;;8.93;;
3627;SDS011;1830;49.000;12.074;2023-05-10T03:15:07;13.60;;;9.87;;
3627;SDS011;1830;49.000;12.074;2023-05-10T03:17:41;15.03;;;10.50;;
3627;SDS011;1830;49.000;12.074;2023-05-10T03:20:16;10.57;;;9.47;;
3627;SDS011;1830;49.000;12.074;2023-05-10T03:22:50;11.33;;;10.20;;
3627;SDS011;1830;49.000;12.074;2023-05-10T03:25:21;11.63;;;10.43;;
3627;SDS011;1830;49.000;12.074;2023-05-10T03:27:51;15.30;;;10.70;;
3627;SDS011;1830;49.000;12.074;2023-05-10T03:30:18;14.60;;;10.50;;
3627;SDS011;1830;49.000;12.074;2023-05-10T03:32:46;16.07;;;11.77;;
3627;SDS011;1830;49.000;12.074;2023-05-10T03:35:13;20.30;;;12.40;;
3627;SDS011;1830;49.000;12.074;2023-05-10T03:37:40;21.80;;;11.27;;
3627;SDS011;1830;49.000;12.074;2023-05-10T03:40:07;14.87;;;11.63;;
3627;SDS011;1830;49.000;12.074;2023-05-10T03:42:35;21.23;;;13.10;;
3627;SDS011;1830;49.000;12.074;2023-05-10T03:45:10;17.60;;;12.00;;
3627;SDS011;1830;49.000;12.074;2023-05-10T03:48:08;18.40;;;13.07;;
3627;SDS011;1830;49.000;12.074;2023-05-10T03:50:37;17.93;;;12.57;;
3627;SDS011;1830;49.000;12.074;2023-05-10T03:56:33;13.77;;;12.30;;
3627;SDS011;1830;49.000;12.074;2023-05-10T03:58:59;15.00;;;12.60;;
3627;SDS011;1830;49.000;12.074;2023-05-10T04:01:28;19.53;;;13.27;;
3627;SDS011;1830;49.000;12.074;2023-05-10T04:03:54;16.13;;;13.50;;
3627;SDS011;1830;49.000;12.074;2023-05-10T04:06:49;16.67;;;13.77;;
3627;SDS011;1830;49.000;12.074;2023-05-10T04:09:19;14.80;;;13.30;;
3627;SDS011;1830;49.000;12.074;2023-05-10T04:12:00;19.60;;;14.57;;
3627;SDS011;1830;49.000;12.074;2023-05-10T04:14:27;19.73;;;13.43;;
3627;SDS011;1830;49.000;12.074;2023-05-10T04:16:55;17.73;;;13.50;;
3627;SDS011;1830;49.000;12.074;2023-05-10T04:19:22;17.80;;;13.37;;
3627;SDS011;1830;49.000;12.074;2023-05-10T04:21:49;17.97;;;13.70;;
3627;SDS011;1830;49.000;12.074;2023-05-10T04:24:16;16.40;;;13.77;;
3627;SDS011;1830;49.000;12.074;2023-05-10T04:26:43;13.87;;;12.43;;
3627;SDS011;1830;49.000;12.074;2023-05-10T04:29:10;25.20;;;14.57;;
3627;SDS011;1830;49.000;12.074;2023-05-10T04:31:37;19.80;;;13.87;;
3627;SDS011;1830;49.000;12.074;2023-05-10T04:34:05;19.53;;;14.97;;
3627;SDS011;1830;49.000;12.074;2023-05-10T04:36:32;19.60;;;13.90;;
3627;SDS011;1830;49.000;12.074;2023-05-10T04:39:00;21.10;;;15.00;;
3627;SDS011;1830;49.000;12.074;2023-05-10T04:41:28;24.93;;;15.20;;
3627;SDS011;1830;49.000;12.074;2023-05-10T04:43:55;18.10;;;15.03;;
3627;SDS011;1830;49.000;12.074;2023-05-10T04:46:22;18.77;;;15.00;;
3627;SDS011;1830;49.000;12.074;2023-05-10T04:48:49;22.80;;;15.00;;
3627;SDS011;1830;49.000;12.074;2023-05-10T04:51:18;19.00;;;15.83;;
3627;SDS011;1830;49.000;12.074;2023-05-10T04:53:45;17.73;;;14.40;;
3627;SDS011;1830;49.000;12.074;2023-05-10T04:56:12;22.30;;;15.20;;
3627;SDS011;1830;49.000;12.074;2023-05-10T04:58:39;18.73;;;14.30;;
3627;SDS011;1830;49.000;12.074;2023-05-10T05:01:06;20.70;;;13.70;;
3627;SDS011;1830;49.000;12.074;2023-05-10T05:03:33;21.20;;;14.60;;
3627;SDS011;1830;49.000;12.074;2023-05-10T05:06:00;18.73;;;14.60;;
3627;SDS011;1830;49.000;12.074;2023-05-10T05:08:28;20.77;;;15.67;;
3627;SDS011;1830;49.000;12.074;2023-05-10T05:10:55;23.30;;;16.27;;
3627;SDS011;1830;49.000;12.074;2023-05-10T05:13:22;19.97;;;14.50;;
3627;SDS011;1830;49.000;12.074;2023-05-10T05:15:48;17.50;;;14.53;;
3627;SDS011;1830;49.000;12.074;2023-05-10T05:18:15;20.00;;;16.20;;
3627;SDS011;1830;49.000;12.074;2023-05-10T05:20:42;20.73;;;13.80;;
3627;SDS011;1830;49.000;12.074;2023-05-10T05:23:09;29.93;;;16.13;;
3627;SDS011;1830;49.000;12.074;2023-05-10T05:25:37;20.93;;;16.50;;
3627;SDS011;1830;49.000;12.074;2023-05-10T05:28:04;22.70;;;15.93;;
3627;SDS011;1830;49.000;12.074;2023-05-10T05:30:30;25.07;;;15.40;;
3627;SDS011;1830;49.000;12.074;2023-05-10T05:32:57;23.10;;;17.30;;
3627;SDS011;1830;49.000;12.074;2023-05-10T05:35:24;20.90;;;15.10;;
3627;SDS011;1830;49.000;12.074;2023-05-10T05:37:51;20.63;;;16.47;;
3627;SDS011;1830;49.000;12.074;2023-05-10T05:40:18;20.27;;;17.33;;
3627;SDS011;1830;49.000;12.074;2023-05-10T05:42:46;21.03;;;16.27;;
3627;SDS011;1830;49.000;12.074;2023-05-10T05:45:13;22.57;;;16.50;;
3627;SDS011;1830;49.000;12.074;2023-05-10T05:47:40;23.20;;;17.00;;
3627;SDS011;1830;49.000;12.074;2023-05-10T05:50:07;23.77;;;15.90;;
3627;SDS011;1830;49.000;12.074;2023-05-10T05:52:35;21.13;;;16.33;;
3627;SDS011;1830;49.000;12.074;2023-05-10T05:55:04;20.97;;;16.33;;
3627;SDS011;1830;49.000;12.074;2023-05-10T05:57:31;23.57;;;17.80;;
3627;SDS011;1830;49.000;12.074;2023-05-10T06:00:00;26.50;;;16.30;;
3627;SDS011;1830;49.000;12.074;2023-05-10T06:02:27;24.87;;;17.00;;
3627;SDS011;1830;49.000;12.074;2023-05-10T06:04:54;21.03;;;15.87;;
3627;SDS011;1830;49.000;12.074;2023-05-10T06:07:21;23.43;;;16.70;;
3627;SDS011;1830;49.000;12.074;2023-05-10T06:09:47;21.17;;;17.90;;
3627;SDS011;1830;49.000;12.074;2023-05-10T06:12:14;24.97;;;17.40;;
3627;SDS011;1830;49.000;12.074;2023-05-10T06:14:41;26.87;;;17.37;;
3627;SDS011;1830;49.000;12.074;2023-05-10T06:17:09;22.43;;;16.10;;
3627;SDS011;1830;49.000;12.074;2023-05-10T06:19:36;24.50;;;17.47;;
3627;SDS011;1830;49.000;12.074;2023-05-10T06:22:03;24.80;;;17.57;;
3627;SDS011;1830;49.000;12.074;2023-05-10T06:24:30;26.83;;;19.50;;
3627;SDS011;1830;49.000;12.074;2023-05-10T06:26:56;22.63;;;17.80;;
3627;SDS011;1830;49.000;12.074;2023-05-10T06:29:25;22.30;;;19.20;;
3627;SDS011;1830;49.000;12.074;2023-05-10T06:31:52;23.37;;;18.70;;
3627;SDS011;1830;49.000;12.074;2023-05-10T06:34:20;24.87;;;18.87;;
3627;SDS011;1830;49.000;12.074;2023-05-10T06:36:47;27.83;;;17.80;;
3627;SDS011;1830;49.000;12.074;2023-05-10T06:39:14;24.43;;;19.83;;
3627;SDS011;1830;49.000;12.074;2023-05-10T06:41:41;27.97;;;21.10;;
3627;SDS011;1830;49.000;12.074;2023-05-10T06:44:07;24.53;;;19.73;;
3627;SDS011;1830;49.000;12.074;2023-05-10T06:46:34;28.43;;;19.30;;
3627;SDS011;1830;49.000;12.074;2023-05-10T06:49:01;25.20;;;19.67;;
3627;SDS011;1830;49.000;12.074;2023-05-10T06:51:29;29.50;;;21.60;;
3627;SDS011;1830;49.000;12.074;2023-05-10T06:53:57;25.67;;;21.23;;
3627;SDS011;1830;49.000;12.074;2023-05-10T06:56:25;29.53;;;19.13;;
3627;SDS011;1830;49.000;12.074;2023-05-10T06:58:51;26.43;;;20.17;;
3627;SDS011;1830;49.000;12.074;2023-05-10T07:01:18;27.53;;;20.27;;
3627;SDS011;1830;49.000;12.074;2023-05-10T07:03:45;27.23;;;20.40;;
3627;SDS011;1830;49.000;12.074;2023-05-10T07:06:12;24.80;;;20.90;;
3627;SDS011;1830;49.000;12.074;2023-05-10T07:08:40;28.30;;;20.77;;
3627;SDS011;1830;49.000;12.074;2023-05-10T07:11:06;23.93;;;19.83;;
3627;SDS011;1830;49.000;12.074;2023-05-10T07:13:33;27.67;;;20.27;;
3627;SDS011;1830;49.000;12.074;2023-05-10T07:16:01;28.77;;;21.23;;
3627;SDS011;1830;49.000;12.074;2023-05-10T07:18:28;27.00;;;20.70;;
3627;SDS011;1830;49.000;12.074;2023-05-10T07:20:54;28.50;;;20.63;;
3627;SDS011;1830;49.000;12.074;2023-05-10T07:23:22;30.40;;;21.33;;
3627;SDS011;1830;49.000;12.074;2023-05-10T07:25:51;26.10;;;20.03;;
3627;SDS011;1830;49.000;12.074;2023-05-10T07:28:18;26.30;;;19.40;;
3627;SDS011;1830;49.000;12.074;2023-05-10T07:30:45;26.53;;;20.70;;
3627;SDS011;1830;49.000;12.074;2023-05-10T07:33:12;29.77;;;21.80;;
3627;SDS011;1830;49.000;12.074;2023-05-10T07:35:40;33.00;;;20.80;;
3627;SDS011;1830;49.000;12.074;2023-05-10T07:38:07;22.47;;;19.37;;
3627;SDS011;1830;49.000;12.074;2023-05-10T07:40:36;22.50;;;19.27;;
3627;SDS011;1830;49.000;12.074;2023-05-10T07:43:04;27.10;;;19.83;;
3627;SDS011;1830;49.000;12.074;2023-05-10T07:45:31;24.10;;;17.30;;
3627;SDS011;1830;49.000;12.074;2023-05-10T07:47:58;19.77;;;17.40;;
3627;SDS011;1830;49.000;12.074;2023-05-10T07:50:25;20.70;;;17.00;;
3627;SDS011;1830;49.000;12.074;2023-05-10T07:52:52;11.37;;;10.13;;
3627;SDS011;1830;49.000;12.074;2023-05-10T07:55:19;22.60;;;11.87;;
3627;SDS011;1830;49.000;12.074;2023-05-10T07:57:47;12.00;;;10.03;;
3627;SDS011;1830;49.000;12.074;2023-05-10T08:00:17;12.67;;;11.37;;
3627;SDS011;1830;49.000;12.074;2023-05-10T08:02:44;8.00;;;7.20;;
3627;SDS011;1830;49.000;12.074;2023-05-10T08:05:11;11.70;;;8.13;;
3627;SDS011;1830;49.000;12.074;2023-05-10T08:07:38;9.70;;;7.17;;
3627;SDS011;1830;49.000;12.074;2023-05-10T08:10:05;8.43;;;6.50;;
3627;SDS011;1830;49.000;12.074;2023-05-10T08:12:33;9.60;;;7.43;;
3627;SDS011;1830;49.000;12.074;2023-05-10T08:15:00;11.63;;;6.50;;
3627;SDS011;1830;49.000;12.074;2023-05-10T08:17:28;10.23;;;6.17;;
3627;SDS011;1830;49.000;12.074;2023-05-10T08:19:55;5.03;;;4.53;;
3627;SDS011;1830;49.000;12.074;2023-05-10T08:22:22;4.83;;;4.43;;
3627;SDS011;1830;49.000;12.074;2023-05-10T08:24:48;4.67;;;4.27;;
3627;SDS011;1830;49.000;12.074;2023-05-10T08:27:15;4.87;;;4.47;;
3627;SDS011;1830;49.000;12.074;2023-05-10T08:29:43;4.87;;;4.47;;
3627;SDS011;1830;49.000;12.074;2023-05-10T08:32:10;4.00;;;3.70;;
3627;SDS011;1830;49.000;12.074;2023-05-10T08:34:41;3.10;;;2.90;;
3627;SDS011;1830;49.000;12.074;2023-05-10T08:37:33;7.53;;;2.50;;
3627;SDS011;1830;49.000;12.074;2023-05-10T08:40:23;2.40;;;2.30;;
3627;SDS011;1830;49.000;12.074;2023-05-10T08:43:54;4.40;;;2.57;;
3627;SDS011;1830;49.000;12.074;2023-05-10T08:46:55;4.37;;;3.77;;
3627;SDS011;1830;49.000;12.074;2023-05-10T08:50:00;4.47;;;3.50;;
3627;SDS011;1830;49.000;12.074;2023-05-10T08:58:19;3.50;;;3.23;;
3627;SDS011;1830;49.000;12.074;2023-05-10T09:00:31;5.00;;;2.60;;
3627;SDS011;1830;49.000;12.074;2023-05-10T09:02:58;3.77;;;3.43;;
3627;SDS011;1830;49.000;12.074;2023-05-10T09:05:27;2.70;;;2.50;;
3627;SDS011;1830;49.000;12.074;2023-05-10T09:07:54;3.70;;;2.47;;
3627;SDS011;1830;49.000;12.074;2023-05-10T09:10:21;3.27;;;2.20;;
3627;SDS011;1830;49.000;12.074;2023-05-10T09:12:52;5.97;;;3.97;;
3627;SDS011;1830;49.000;12.074;2023-05-10T09:15:22;19.50;;;17.60;;
3627;SDS011;1830;49.000;12.074;2023-05-10T09:17:49;22.30;;;20.30;;
3627;SDS011;1830;49.000;12.074;2023-05-10T09:20:16;10.17;;;9.23;;
3627;SDS011;1830;49.000;12.074;2023-05-10T09:22:44;2.30;;;2.20;;
3627;SDS011;1830;49.000;12.074;2023-05-10T09:25:11;9.63;;;2.50;;
3627;SDS011;1830;49.000;12.074;2023-05-10T09:27:40;6.60;;;6.00;;
3627;SDS011;1830;49.000;12.074;2023-05-10T09:30:08;7.50;;;6.90;;
3627;SDS011;1830;49.000;12.074;2023-05-10T09:32:36;5.53;;;4.93;;
3627;SDS011;1830;49.000;12.074;2023-05-10T09:35:07;2.50;;;2.30;;
3627;SDS011;1830;49.000;12.074;2023-05-10T09:37:35;2.83;;;2.63;;
3627;SDS011;1830;49.000;12.074;2023-05-10T09:40:05;2.40;;;2.30;;
3627;SDS011;1830;49.000;12.074;2023-05-10T09:42:34;7.00;;;5.80;;
3627;SDS011;1830;49.000;12.074;2023-05-10T09:45:02;4.13;;;2.70;;
3627;SDS011;1830;49.000;12.074;2023-05-10T09:47:31;35.80;;;23.63;;
3627;SDS011;1830;49.000;12.074;2023-05-10T09:49:58;3.00;;;2.30;;
3627;SDS011;1830;49.000;12.074;2023-05-10T09:52:30;6.10;;;2.37;;
3627;SDS011;1830;49.000;12.074;2023-05-10T09:55:22;17.70;;;11.30;;
3627;SDS011;1830;49.000;12.074;2023-05-10T10:01:51;2.77;;;2.67;;
3627;SDS011;1830;49.000;12.074;2023-05-10T10:04:43;5.90;;;3.10;;
3627;SDS011;1830;49.000;12.074;2023-05-10T10:07:29;4.40;;;2.93;;
3627;SDS011;1830;49.000;12.074;2023-05-10T10:10:18;7.00;;;3.50;;
3627;SDS011;1830;49.000;12.074;2023-05-10T10:12:45;6.83;;;3.10;;
3627;SDS011;1830;49.000;12.074;2023-05-10T10:15:12;2.13;;;2.03;;
3627;SDS011;1830;49.000;12.074;2023-05-10T10:17:39;1.80;;;1.70;;
3627;SDS011;1830;49.000;12.074;2023-05-10T10:20:09;4.33;;;3.40;;
3627;SDS011;1830;49.000;12.074;2023-05-10T10:22:36;4.00;;;3.40;;
3627;SDS011;1830;49.000;12.074;2023-05-10T10:25:09;3.20;;;3.00;;
3627;SDS011;1830;49.000;12.074;2023-05-10T10:27:48;1.90;;;1.80;;
3627;SDS011;1830;49.000;12.074;2023-05-10T10:30:35;2.43;;;2.30;;
3627;SDS011;1830;49.000;12.074;2023-05-10T10:33:18;4.23;;;3.90;;
3627;SDS011;1830;49.000;12.074;2023-05-10T10:35:57;3.50;;;1.97;;
3627;SDS011;1830;49.000;12.074;2023-05-10T10:38:26;1.63;;;1.60;;
3627;SDS011;1830;49.000;12.074;2023-05-10T10:41:07;6.33;;;2.63;;
3627;SDS011;1830;49.000;12.074;2023-05-10T10:43:37;3.10;;;1.90;;
3627;SDS011;1830;49.000;12.074;2023-05-10T10:46:10;8.23;;;1.77;;
3627;SDS011;1830;49.000;12.074;2023-05-10T10:48:38;1.70;;;1.70;;
3627;SDS011;1830;49.000;12.074;2023-05-10T10:51:06;3.13;;;2.00;;
3627;SDS011;1830;49.000;12.074;2023-05-10T10:53:32;1.90;;;1.80;;
3627;SDS011;1830;49.000;12.074;2023-05-10T10:56:05;1.70;;;1.70;;
3627;SDS011;1830;49.000;12.074;2023-05-10T10:58:34;2.20;;;1.57;;
3627;SDS011;1830;49.000;12.074;2023-05-10T11:01:13;1.77;;;1.70;;
3627;SDS011;1830;49.000;12.074;2023-05-10T11:03:41;3.60;;;1.80;;
3627;SDS011;1830;49.000;12.074;2023-05-10T11:06:28;1.57;;;1.47;;
3627;SDS011;1830;49.000;12.074;2023-05-10T11:08:56;1.93;;;1.83;;
3627;SDS011;1830;49.000;12.074;2023-05-10T11:11:23;2.00;;;1.67;;
3627;SDS011;1830;49.000;12.074;2023-05-10T11:13:50;7.53;;;2.20;;
3627;SDS011;1830;49.000;12.074;2023-05-10T11:16:19;1.73;;;1.63;;
3627;SDS011;1830;49.000;12.074;2023-05-10T11:18:56;3.17;;;1.70;;
3627;SDS011;1830;49.000;12.074;2023-05-10T11:21:26;4.67;;;1.50;;
3627;SDS011;1830;49.000;12.074;2023-05-10T11:23:53;1.90;;;1.70;;
3627;SDS011;1830;49.000;12.074;2023-05-10T11:26:22;2.90;;;1.53;;
3627;SDS011;1830;49.000;12.074;2023-05-10T11:28:51;1.57;;;1.47;;
3627;SDS011;1830;49.000;12.074;2023-05-10T11:31:20;1.73;;;1.60;;
3627;SDS011;1830;49.000;12.074;2023-05-10T11:33:48;2.10;;;1.53;;
3627;SDS011;1830;49.000;12.074;2023-05-10T11:36:17;3.10;;;1.70;;
3627;SDS011;1830;49.000;12.074;2023-05-10T11:38:44;3.43;;;1.70;;
3627;SDS011;1830;49.000;12.074;2023-05-10T11:41:12;3.87;;;1.53;;
3627;SDS011;1830;49.000;12.074;2023-05-10T11:43:39;3.10;;;1.93;;
3627;SDS011;1830;49.000;12.074;2023-05-10T11:46:07;5.13;;;1.53;;
3627;SDS011;1830;49.000;12.074;2023-05-10T11:48:38;4.33;;;1.40;;
3627;SDS011;1830;49.000;12.074;2023-05-10T11:51:05;3.23;;;1.47;;
3627;SDS011;1830;49.000;12.074;2023-05-10T11:53:33;3.43;;;1.60;;
3627;SDS011;1830;49.000;12.074;2023-05-10T11:56:03;1.40;;;1.40;;
3627;SDS011;1830;49.000;12.074;2023-05-10T11:58:30;1.20;;;1.20;;
3627;SDS011;1830;49.000;12.074;2023-05-10T12:00:57;1.27;;;1.27;;
3627;SDS011;1830;49.000;12.074;2023-05-10T12:03:24;1.53;;;1.30;;
3627;SDS011;1830;49.000;12.074;2023-05-10T12:05:53;1.60;;;1.50;;
3627;SDS011;1830;49.000;12.074;2023-05-10T12:08:21;3.80;;;1.57;;
3627;SDS011;1830;49.000;12.074;2023-05-10T12:10:49;1.33;;;1.23;;
3627;SDS011;1830;49.000;12.074;2023-05-10T12:13:16;1.13;;;1.13;;
3627;SDS011;1830;49.000;12.074;2023-05-10T12:15:43;3.60;;;1.60;;
3627;SDS011;1830;49.000;12.074;2023-05-10T12:18:10;1.80;;;1.20;;
3627;SDS011;1830;49.000;12.074;2023-05-10T12:20:37;1.70;;;1.60;;
3627;SDS011;1830;49.000;12.074;2023-05-10T12:23:07;1.67;;;1.60;;
3627;SDS011;1830;49.000;12.074;2023-05-10T12:25:35;1.10;;;1.10;;
3627;SDS011;1830;49.000;12.074;2023-05-10T12:28:03;1.17;;;1.10;;
3627;SDS011;1830;49.000;12.074;2023-05-10T12:30:32;1.00;;;0.90;;
3627;SDS011;1830;49.000;12.074;2023-05-10T12:33:00;7.23;;;1.30;;
3627;SDS011;1830;49.000;12.074;2023-05-10T12:35:29;1.53;;;1.37;;
3627;SDS011;1830;49.000;12.074;2023-05-10T12:37:57;2.60;;;1.63;;
3627;SDS011;1830;49.000;12.074;2023-05-10T12:40:25;2.83;;;1.50;;
3627;SDS011;1830;49.000;12.074;2023-05-10T12:42:52;1.30;;;1.30;;
3627;SDS011;1830;49.000;12.074;2023-05-10T12:45:19;1.40;;;1.40;;
3627;SDS011;1830;49.000;12.074;2023-05-10T12:47:45;1.67;;;1.50;;
3627;SDS011;1830;49.000;12.074;2023-05-10T12:50:12;12.97;;;2.40;;
3627;SDS011;1830;49.000;12.074;2023-05-10T12:52:39;2.40;;;1.70;;
3627;SDS011;1830;49.000;12.074;2023-05-10T12:55:06;3.27;;;1.70;;
3627;SDS011;1830;49.000;12.074;2023-05-10T12:57:35;2.57;;;1.87;;
3627;SDS011;1830;49.000;12.074;2023-05-10T13:00:01;1.63;;;1.50;;
3627;SDS011;1830;49.000;12.074;2023-05-10T13:02:29;6.10;;;1.50;;
3627;SDS011;1830;49.000;12.074;2023-05-10T13:04:56;2.43;;;1.57;;
3627;SDS011;1830;49.000;12.074;2023-05-10T13:07:23;1.90;;;1.53;;
3627;SDS011;1830;49.000;12.074;2023-05-10T13:09:50;4.60;;;1.70;;
3627;SDS011;1830;49.000;12.074;2023-05-10T13:12:17;5.47;;;1.90;;
3627;SDS011;1830;49.000;12.074;2023-05-10T13:14:45;5.60;;;1.90;;
3627;SDS011;1830;49.000;12.074;2023-05-10T13:17:12;9.30;;;2.80;;
3627;SDS011;1830;49.000;12.074;2023-05-10T13:19:39;11.83;;;2.57;;
3627;SDS011;1830;49.000;12.074;2023-05-10T13:22:05;2.97;;;2.40;;
3627;SDS011;1830;49.000;12.074;2023-05-10T13:24:32;5.20;;;2.77;;
3627;SDS011;1830;49.000;12.074;2023-05-10T13:26:59;7.97;;;2.87;;
3627;SDS011;1830;49.000;12.074;2023-05-10T13:29:26;4.93;;;3.23;;
3627;SDS011;1830;49.000;12.074;2023-05-10T13:31:54;9.10;;;4.00;;
3627;SDS011;1830;49.000;12.074;2023-05-10T13:34:21;4.87;;;2.50;;
3627;SDS011;1830;49.000;12.074;2023-05-10T13:36:49;3.57;;;2.70;;
3627;SDS011;1830;49.000;12.074;2023-05-10T13:39:16;14.27;;;9.13;;
3627;SDS011;1830;49.000;12.074;2023-05-10T13:41:43;20.83;;;13.13;;
3627;SDS011;1830;49.000;12.074;2023-05-10T13:44:11;7.93;;;4.93;;
3627;SDS011;1830;49.000;12.074;2023-05-10T13:46:39;5.23;;;2.93;;
3627;SDS011;1830;49.000;12.074;2023-05-10T13:49:08;3.70;;;2.90;;
3627;SDS011;1830;49.000;12.074;2023-05-10T13:51:35;2.77;;;2.57;;
3627;SDS011;1830;49.000;12.074;2023-05-10T13:54:02;6.33;;;2.87;;
3627;SDS011;1830;49.000;12.074;2023-05-10T13:56:29;8.93;;;3.23;;
3627;SDS011;1830;49.000;12.074;2023-05-10T13:58:56;8.90;;;3.40;;
3627;SDS011;1830;49.000;12.074;2023-05-10T14:01:23;8.03;;;3.10;;
3627;SDS011;1830;49.000;12.074;2023-05-10T14:03:50;5.00;;;2.70;;
3627;SDS011;1830;49.000;12.074;2023-05-10T14:06:18;3.27;;;2.80;;
3627;SDS011;1830;49.000;12.074;2023-05-10T14:08:45;5.27;;;3.13;;
3627;SDS011;1830;49.000;12.074;2023-05-10T14:11:12;4.07;;;3.13;;
3627;SDS011;1830;49.000;12.074;2023-05-10T14:13:39;5.00;;;3.20;;
3627;SDS011;1830;49.000;12.074;2023-05-10T14:16:06;4.57;;;3.00;;
3627;SDS011;1830;49.000;12.074;2023-05-10T14:18:33;5.30;;;2.57;;
3627;SDS011;1830;49.000;12.074;2023-05-10T14:21:00;3.20;;;2.90;;
3627;SDS011;1830;49.000;12.074;2023-05-10T14:23:29;4.90;;;4.23;;
3627;SDS011;1830;49.000;12.074;2023-05-10T14:25:56;4.70;;;3.77;;
3627;SDS011;1830;49.000;12.074;2023-05-10T14:28:23;5.03;;;3.50;;
3627;SDS011;1830;49.000;12.074;2023-05-10T14:30:50;7.63;;;3.90;;
3627;SDS011;1830;49.000;12.074;2023-05-10T14:33:17;6.87;;;4.37;;
3627;SDS011;1830;49.000;12.074;2023-05-10T14:35:44;5.10;;;3.73;;
3627;SDS011;1830;49.000;12.074;2023-05-10T14:38:11;7.87;;;4.30;;
3627;SDS011;1830;49.000;12.074;2023-05-10T14:40:40;11.83;;;4.60;;
3627;SDS011;1830;49.000;12.074;2023-05-10T14:43:07;8.03;;;4.40;;
3627;SDS011;1830;49.000;12.074;2023-05-10T14:45:34;7.30;;;4.37;;
3627;SDS011;1830;49.000;12.074;2023-05-10T14:48:00;3.97;;;3.67;;
3627;SDS011;1830;49.000;12.074;2023-05-10T14:50:29;7.33;;;3.03;;
3627;SDS011;1830;49.000;12.074;2023-05-10T14:52:56;4.17;;;2.80;;
3627;SDS011;1830;49.000;12.074;2023-05-10T14:55:23;5.57;;;3.97;;
3627;SDS011;1830;49.000;12.074;2023-05-10T14:57:51;5.30;;;3.70;;
3627;SDS011;1830;49.000;12.074;2023-05-10T15:00:18;4.83;;;4.30;;
3627;SDS011;1830;49.000;12.074;2023-05-10T15:02:45;6.90;;;4.30;;
3627;SDS011;1830;49.000;12.074;2023-05-10T15:05:13;6.53;;;4.13;;
3627;SDS011;1830;49.000;12.074;2023-05-10T15:07:40;7.27;;;4.10;;
3627;SDS011;1830;49.000;12.074;2023-05-10T15:10:08;5.67;;;5.20;;
3627;SDS011;1830;49.000;12.074;2023-05-10T15:12:35;6.10;;;4.10;;
3627;SDS011;1830;49.000;12.074;2023-05-10T15:15:04;6.50;;;4.50;;